createdAt,value
2017-09-29T00:02:17.662Z,99.90
2017-09-29T00:04:45.968Z,99.90
2017-09-29T00:07:14.285Z,99.90
2017-09-29T00:09:42.610Z,99.90
2017-09-29T00:12:11.985Z,99.90
2017-09-29T00:14:40.323Z,99.90
2017-09-29T00:17:09.489Z,99.90
2017-09-29T00:19:37.805Z,99.90
2017-09-29T00:22:06.131Z,99.90
2017-09-29T00:24:35.198Z,99.90
2017-09-29T00:27:03.525Z,99.90
2017-09-29T00:29:31.864Z,99.90
2017-09-29T00:32:00.161Z,99.90
2017-09-29T00:34:29.253Z,99.90
2017-09-29T00:36:58.351Z,99.90
2017-09-29T00:39:26.816Z,99.90
2017-09-29T00:41:55.153Z,99.90
2017-09-29T00:44:23.476Z,99.90
2017-09-29T00:46:51.794Z,99.90
2017-09-29T00:49:20.126Z,99.90
2017-09-29T00:51:48.429Z,99.90
2017-09-29T00:54:17.500Z,99.90
2017-09-29T00:56:45.831Z,99.90
2017-09-29T00:59:14.137Z,99.90
2017-09-29T01:01:42.438Z,99.90
2017-09-29T01:04:10.760Z,99.90
2017-09-29T01:06:39.077Z,99.90
2017-09-29T01:09:07.417Z,99.90
2017-09-29T01:11:35.721Z,99.90
2017-09-29T01:14:04.042Z,99.90
2017-09-29T01:16:32.366Z,99.90
2017-09-29T01:19:00.699Z,99.90
2017-09-29T01:21:29.038Z,99.90
2017-09-29T01:23:57.357Z,99.90
2017-09-29T01:26:26.422Z,99.90
2017-09-29T01:28:55.580Z,99.90
2017-09-29T01:31:23.876Z,99.90
2017-09-29T01:33:52.190Z,99.90
2017-09-29T01:36:21.290Z,99.90
2017-09-29T01:38:49.590Z,99.90
2017-09-29T01:41:17.934Z,99.90
2017-09-29T01:43:46.237Z,99.90
2017-09-29T01:46:14.653Z,99.90
2017-09-29T01:48:43.029Z,99.90
2017-09-29T01:51:11.330Z,99.90
2017-09-29T01:53:40.523Z,99.90
2017-09-29T01:56:08.842Z,99.90
2017-09-29T01:58:37.190Z,99.90
2017-09-29T02:01:05.495Z,99.90
2017-09-29T02:03:33.789Z,99.90
2017-09-29T02:06:02.141Z,99.90
2017-09-29T02:08:30.468Z,99.90
2017-09-29T02:10:58.829Z,99.90
2017-09-29T02:13:27.141Z,99.90
2017-09-29T02:15:56.236Z,99.90
2017-09-29T02:18:24.571Z,99.90
2017-09-29T02:20:53.642Z,99.90
2017-09-29T02:23:21.977Z,99.90
2017-09-29T02:25:51.065Z,99.90
2017-09-29T02:28:19.374Z,99.90
2017-09-29T02:30:47.708Z,99.90
2017-09-29T02:33:16.013Z,99.90
2017-09-29T02:35:44.323Z,99.90
2017-09-29T02:38:12.654Z,99.90
2017-09-29T02:40:40.996Z,99.90
2017-09-29T02:43:10.102Z,99.90
2017-09-29T02:45:38.413Z,99.90
2017-09-29T02:48:06.763Z,99.90
2017-09-29T02:50:35.064Z,99.90
2017-09-29T02:53:03.384Z,99.90
2017-09-29T02:55:31.747Z,99.90
2017-09-29T02:58:04.427Z,99.90
2017-09-29T03:00:35.453Z,99.90
2017-09-29T03:03:05.227Z,99.90
2017-09-29T03:05:43.629Z,99.90
2017-09-29T03:08:11.948Z,99.90
2017-09-29T03:10:41.042Z,99.90
2017-09-29T03:13:09.394Z,99.90
2017-09-29T03:15:37.700Z,99.90
2017-09-29T03:18:06.000Z,99.90
2017-09-29T03:20:34.328Z,99.90
2017-09-29T03:23:03.425Z,99.90
2017-09-29T03:25:31.762Z,99.90
2017-09-29T03:28:00.064Z,99.90
2017-09-29T03:30:28.370Z,99.90
2017-09-29T03:32:56.723Z,99.90
2017-09-29T03:35:25.033Z,99.90
2017-09-29T03:37:53.376Z,99.90
2017-09-29T03:40:21.684Z,99.90
2017-09-29T03:42:50.687Z,99.90
2017-09-29T03:45:19.936Z,99.90
2017-09-29T03:47:48.279Z,99.90
2017-09-29T03:50:20.923Z,99.90
2017-09-29T03:52:52.898Z,99.90
2017-09-29T03:55:23.297Z,99.90
2017-09-29T03:57:53.900Z,99.90
2017-09-29T04:00:22.239Z,99.90
2017-09-29T04:02:50.941Z,99.90
2017-09-29T04:05:19.735Z,99.90
2017-09-29T04:07:48.823Z,99.90
2017-09-29T04:10:17.601Z,99.90
2017-09-29T04:12:47.153Z,99.90
2017-09-29T04:15:16.129Z,99.90
2017-09-29T04:17:44.473Z,99.90
2017-09-29T04:20:12.784Z,99.90
2017-09-29T04:22:41.883Z,99.90
2017-09-29T04:25:10.194Z,99.90
2017-09-29T04:27:38.698Z,99.90
2017-09-29T04:30:07.061Z,99.90
2017-09-29T04:32:35.377Z,99.90
2017-09-29T04:35:03.691Z,99.90
2017-09-29T04:37:32.037Z,99.90
2017-09-29T04:40:00.345Z,99.90
2017-09-29T04:42:28.710Z,99.90
2017-09-29T04:44:57.017Z,99.90
2017-09-29T04:47:25.564Z,99.90
2017-09-29T04:49:53.906Z,99.90
2017-09-29T04:52:23.189Z,99.90
2017-09-29T04:54:52.301Z,99.90
2017-09-29T04:57:20.621Z,99.90
2017-09-29T04:59:49.688Z,99.90
2017-09-29T05:02:18.129Z,99.90
2017-09-29T05:04:48.079Z,99.90
2017-09-29T05:07:16.429Z,99.90
2017-09-29T05:09:44.757Z,99.90
2017-09-29T05:12:13.105Z,99.90
2017-09-29T05:14:42.207Z,99.90
2017-09-29T05:17:10.577Z,99.90
2017-09-29T05:19:38.889Z,99.90
2017-09-29T05:22:07.201Z,99.90
2017-09-29T05:24:35.536Z,99.90
2017-09-29T05:27:03.942Z,99.90
2017-09-29T05:29:32.303Z,99.90
2017-09-29T05:32:00.622Z,99.90
2017-09-29T05:34:28.969Z,99.90
2017-09-29T05:36:57.506Z,99.90
2017-09-29T05:39:25.832Z,99.90
2017-09-29T05:41:55.069Z,99.90
2017-09-29T05:44:23.393Z,99.90
2017-09-29T05:46:51.695Z,99.90
2017-09-29T05:49:21.575Z,99.90
2017-09-29T05:51:49.970Z,99.90
2017-09-29T05:54:18.655Z,99.90
2017-09-29T05:56:47.856Z,99.90
2017-09-29T05:59:16.577Z,99.90
2017-09-29T06:01:45.823Z,99.90
2017-09-29T06:04:14.149Z,99.90
2017-09-29T06:06:42.481Z,99.90
2017-09-29T06:09:10.811Z,99.90
2017-09-29T06:11:39.153Z,99.90
2017-09-29T06:14:08.281Z,99.90
2017-09-29T06:16:36.581Z,99.90
2017-09-29T06:19:05.688Z,99.90
2017-09-29T06:21:34.029Z,99.90
2017-09-29T06:24:03.132Z,99.90
2017-09-29T06:26:31.465Z,99.90
2017-09-29T06:28:59.775Z,99.90
2017-09-29T06:31:28.109Z,99.90
2017-09-29T06:33:56.713Z,99.90
2017-09-29T06:36:25.900Z,99.90
2017-09-29T06:38:54.205Z,99.90
2017-09-29T06:41:23.280Z,99.90
2017-09-29T06:43:53.425Z,99.90
2017-09-29T06:46:22.514Z,99.90
2017-09-29T06:48:50.873Z,99.90
2017-09-29T06:51:19.200Z,99.90
2017-09-29T06:53:47.525Z,99.90
2017-09-29T06:56:15.860Z,99.90
2017-09-29T06:58:44.168Z,99.90
2017-09-29T07:01:12.525Z,99.90
2017-09-29T07:03:47.561Z,99.90
2017-09-29T07:06:15.853Z,99.90
2017-09-29T07:08:44.185Z,99.90
2017-09-29T07:11:12.503Z,99.90
2017-09-29T07:13:40.831Z,99.90
2017-09-29T07:16:09.916Z,99.90
2017-09-29T07:18:38.275Z,99.90
2017-09-29T07:21:06.599Z,99.90
2017-09-29T07:23:34.905Z,99.90
2017-09-29T07:26:05.997Z,99.90
2017-09-29T07:28:35.765Z,99.90
2017-09-29T07:31:05.646Z,99.90
2017-09-29T07:33:33.953Z,99.90
2017-09-29T07:36:02.255Z,99.90
2017-09-29T07:38:31.522Z,99.90
2017-09-29T07:40:59.902Z,99.90
2017-09-29T07:43:29.523Z,99.90
2017-09-29T07:45:57.833Z,99.90
2017-09-29T07:48:26.178Z,99.90
2017-09-29T07:50:54.495Z,99.90
2017-09-29T07:53:22.821Z,99.90
2017-09-29T07:55:51.892Z,99.90
2017-09-29T07:58:21.062Z,99.90
2017-09-29T08:00:50.145Z,99.90
2017-09-29T08:03:19.229Z,99.90
2017-09-29T08:05:47.581Z,99.90
2017-09-29T08:08:15.899Z,99.10
2017-09-29T08:10:44.241Z,99.40
2017-09-29T08:13:12.607Z,96.40
2017-09-29T08:15:40.900Z,96.60
2017-09-29T08:18:09.201Z,94.00
2017-09-29T08:20:37.537Z,94.00
2017-09-29T08:23:05.875Z,93.30
2017-09-29T08:25:34.183Z,88.80
2017-09-29T08:28:03.304Z,89.00
2017-09-29T08:30:31.612Z,89.00
2017-09-29T08:32:59.997Z,89.70
2017-09-29T08:35:28.332Z,89.60
2017-09-29T08:37:56.787Z,86.40
2017-09-29T08:40:25.095Z,90.50
2017-09-29T08:42:54.206Z,83.90
2017-09-29T08:45:22.553Z,83.90
2017-09-29T08:47:50.873Z,84.60
2017-09-29T08:50:19.520Z,89.40
2017-09-29T08:52:47.820Z,89.30
2017-09-29T08:55:16.148Z,89.70
2017-09-29T08:57:44.483Z,89.00
2017-09-29T09:00:22.076Z,87.40
2017-09-29T09:02:50.393Z,87.30
2017-09-29T09:05:18.721Z,81.00
2017-09-29T09:07:47.032Z,82.00
2017-09-29T09:10:15.361Z,80.40
2017-09-29T09:12:43.714Z,81.50
2017-09-29T09:15:12.780Z,81.60
2017-09-29T09:17:41.079Z,81.60
2017-09-29T09:20:10.182Z,79.30
2017-09-29T09:22:38.483Z,79.30
2017-09-29T09:25:07.557Z,73.40
2017-09-29T09:27:36.655Z,75.90
2017-09-29T09:30:05.742Z,75.20
2017-09-29T09:32:34.083Z,75.10
2017-09-29T09:35:03.165Z,71.40
2017-09-29T09:37:32.258Z,70.50
2017-09-29T09:40:00.578Z,70.50
2017-09-29T09:42:28.885Z,72.30
2017-09-29T09:44:57.219Z,71.70
2017-09-29T09:47:25.649Z,71.50
2017-09-29T09:49:54.717Z,69.70
2017-09-29T09:52:23.044Z,69.70
2017-09-29T09:54:51.371Z,68.20
2017-09-29T09:57:19.697Z,67.50
2017-09-29T09:59:48.760Z,69.60
2017-09-29T10:02:17.093Z,69.60
2017-09-29T10:04:45.458Z,67.30
2017-09-29T10:07:13.808Z,68.40
2017-09-29T10:09:42.135Z,69.90
2017-09-29T10:12:10.483Z,71.90
2017-09-29T10:14:39.566Z,71.90
2017-09-29T10:17:07.894Z,71.90
2017-09-29T10:19:36.961Z,70.30
2017-09-29T10:22:06.070Z,73.90
2017-09-29T10:24:34.401Z,73.90
2017-09-29T10:27:02.718Z,72.80
2017-09-29T10:29:31.823Z,64.70
2017-09-29T10:32:00.149Z,64.30
2017-09-29T10:34:29.241Z,55.60
2017-09-29T10:36:57.562Z,55.80
2017-09-29T10:39:25.932Z,57.40
2017-09-29T10:41:55.046Z,58.20
2017-09-29T10:44:23.405Z,58.20
2017-09-29T10:46:51.710Z,61.40
2017-09-29T10:49:21.009Z,57.80
2017-09-29T10:51:50.519Z,57.80
2017-09-29T10:54:18.853Z,57.80
2017-09-29T10:56:47.164Z,59.40
2017-09-29T10:59:16.226Z,60.20
2017-09-29T11:01:44.543Z,60.20
2017-09-29T11:04:12.843Z,59.90
2017-09-29T11:06:41.951Z,60.00
2017-09-29T11:09:10.246Z,59.90
2017-09-29T11:11:38.545Z,62.60
2017-09-29T11:14:06.890Z,61.90
2017-09-29T11:16:35.206Z,62.20
2017-09-29T11:19:03.496Z,64.00
2017-09-29T11:21:32.585Z,59.50
2017-09-29T11:24:00.893Z,59.50
2017-09-29T11:26:29.188Z,61.00
2017-09-29T11:28:58.303Z,57.90
2017-09-29T11:31:26.770Z,57.90
2017-09-29T11:33:55.160Z,57.20
2017-09-29T11:36:23.545Z,55.00
2017-09-29T11:38:52.408Z,52.90
2017-09-29T11:41:20.729Z,52.20
2017-09-29T11:43:49.035Z,51.30
2017-09-29T11:46:17.362Z,49.10
2017-09-29T11:48:46.539Z,48.50
2017-09-29T11:51:14.894Z,50.80
2017-09-29T11:53:43.190Z,52.10
2017-09-29T11:56:11.485Z,52.60
2017-09-29T11:58:39.822Z,55.20
2017-09-29T12:01:08.120Z,55.00
2017-09-29T12:03:36.418Z,53.60
2017-09-29T12:06:04.737Z,55.70
2017-09-29T12:08:33.054Z,58.00
2017-09-29T12:11:01.354Z,58.20
2017-09-29T12:13:30.454Z,60.60
2017-09-29T12:15:58.771Z,60.60
2017-09-29T12:18:27.286Z,61.50
2017-09-29T12:20:56.383Z,61.40
2017-09-29T12:23:24.681Z,61.30
2017-09-29T12:25:53.761Z,59.90
2017-09-29T12:28:22.142Z,59.80
2017-09-29T12:30:50.483Z,58.00
2017-09-29T12:33:18.777Z,57.30
2017-09-29T12:35:47.839Z,55.80
2017-09-29T12:38:16.925Z,57.30
2017-09-29T12:40:46.027Z,57.40
2017-09-29T12:43:14.329Z,58.00
2017-09-29T12:45:42.629Z,59.40
2017-09-29T12:48:11.739Z,58.10
2017-09-29T12:50:40.035Z,58.10
2017-09-29T12:53:08.330Z,57.30
2017-09-29T12:55:36.640Z,58.50
2017-09-29T12:58:04.970Z,58.10
2017-09-29T13:00:33.290Z,56.40
2017-09-29T13:03:01.605Z,56.40
2017-09-29T13:05:30.667Z,57.40
2017-09-29T13:07:59.749Z,58.10
2017-09-29T13:10:28.076Z,58.10
2017-09-29T13:12:58.077Z,55.50
2017-09-29T13:15:26.405Z,55.50
2017-09-29T13:17:54.707Z,56.60
2017-09-29T13:20:23.174Z,55.00
2017-09-29T13:22:52.269Z,54.50
2017-09-29T13:25:20.790Z,54.60
2017-09-29T13:27:49.844Z,57.00
2017-09-29T13:30:18.943Z,56.70
2017-09-29T13:32:47.244Z,56.70
2017-09-29T13:35:15.580Z,55.90
2017-09-29T13:37:44.682Z,56.60
2017-09-29T13:40:13.022Z,56.60
2017-09-29T13:42:41.316Z,56.10
2017-09-29T13:45:09.619Z,55.90
2017-09-29T13:47:37.949Z,56.70
2017-09-29T13:50:06.291Z,57.70
2017-09-29T13:52:34.580Z,57.10
2017-09-29T13:55:02.902Z,57.70
2017-09-29T13:57:31.292Z,58.00
2017-09-29T13:59:59.593Z,57.70
2017-09-29T14:02:28.247Z,58.90
2017-09-29T14:04:57.329Z,60.30
2017-09-29T14:07:26.390Z,59.10
2017-09-29T14:09:54.707Z,59.10
2017-09-29T14:12:23.069Z,59.40
2017-09-29T14:14:51.430Z,59.20
2017-09-29T14:17:19.741Z,60.00
2017-09-29T14:19:48.068Z,58.10
2017-09-29T14:22:16.360Z,56.90
2017-09-29T14:24:44.726Z,58.30
2017-09-29T14:27:13.033Z,58.10
2017-09-29T14:29:41.326Z,58.70
2017-09-29T14:32:09.657Z,58.50
2017-09-29T14:34:37.973Z,56.50
2017-09-29T14:37:06.274Z,57.70
2017-09-29T14:39:34.619Z,57.10
2017-09-29T14:42:02.946Z,57.00
2017-09-29T14:44:31.306Z,55.70
2017-09-29T14:46:59.622Z,54.40
2017-09-29T14:49:28.675Z,54.90
2017-09-29T14:51:57.097Z,54.90
2017-09-29T14:54:25.786Z,55.30
2017-09-29T14:56:54.082Z,54.80
2017-09-29T14:59:22.660Z,54.00
2017-09-29T15:01:50.961Z,54.80
2017-09-29T15:04:19.261Z,54.40
2017-09-29T15:06:47.584Z,54.30
2017-09-29T15:09:17.218Z,54.30
2017-09-29T15:11:46.104Z,54.40
2017-09-29T15:14:15.080Z,54.90
2017-09-29T15:16:43.396Z,55.30
2017-09-29T15:19:11.692Z,53.90
2017-09-29T15:21:40.029Z,55.00
2017-09-29T15:24:08.340Z,54.90
2017-09-29T15:26:36.644Z,56.00
2017-09-29T15:29:05.810Z,56.10
2017-09-29T15:31:34.881Z,55.80
2017-09-29T15:34:03.980Z,55.40
2017-09-29T15:36:32.274Z,55.40
2017-09-29T15:39:00.572Z,56.20
2017-09-29T15:41:30.672Z,56.20
2017-09-29T15:43:59.742Z,56.70
2017-09-29T15:46:28.873Z,56.90
2017-09-29T15:48:57.257Z,56.80
2017-09-29T15:51:26.317Z,56.50
2017-09-29T15:53:54.662Z,56.40
2017-09-29T15:56:22.969Z,57.40
2017-09-29T15:58:51.281Z,56.40
2017-09-29T16:01:19.653Z,56.80
2017-09-29T16:03:47.954Z,58.30
2017-09-29T16:06:16.599Z,58.30
2017-09-29T16:08:45.170Z,57.30
2017-09-29T16:11:13.474Z,58.30
2017-09-29T16:13:42.563Z,58.60
2017-09-29T16:16:11.756Z,58.90
2017-09-29T16:18:40.048Z,58.90
2017-09-29T16:21:08.349Z,61.20
2017-09-29T16:23:37.455Z,62.70
2017-09-29T16:26:05.836Z,62.60
2017-09-29T16:28:34.131Z,66.20
2017-09-29T16:31:03.292Z,69.80
2017-09-29T16:33:33.169Z,69.30
2017-09-29T16:36:02.078Z,69.30
2017-09-29T16:38:31.007Z,68.90
2017-09-29T16:40:59.308Z,70.20
2017-09-29T16:43:27.662Z,68.60
2017-09-29T16:45:56.014Z,64.40
2017-09-29T16:48:24.314Z,69.70
2017-09-29T16:50:52.639Z,68.00
2017-09-29T16:53:20.937Z,73.70
2017-09-29T16:55:49.996Z,74.80
2017-09-29T16:58:19.085Z,76.70
2017-09-29T17:00:47.406Z,76.50
2017-09-29T17:03:15.699Z,76.20
2017-09-29T17:05:44.055Z,77.20
2017-09-29T17:08:12.349Z,77.40
2017-09-29T17:10:40.644Z,78.10
2017-09-29T17:13:08.983Z,77.40
2017-09-29T17:15:38.068Z,70.30
2017-09-29T17:18:06.383Z,70.30
2017-09-29T17:20:34.734Z,73.70
2017-09-29T17:23:03.869Z,76.20
2017-09-29T17:25:32.186Z,74.60
2017-09-29T17:28:01.305Z,76.20
2017-09-29T17:30:29.606Z,76.30
2017-09-29T17:32:57.915Z,80.30
2017-09-29T17:35:26.257Z,79.70
2017-09-29T17:37:54.588Z,81.30
2017-09-29T17:40:22.884Z,79.60
2017-09-29T17:42:51.237Z,79.90
2017-09-29T17:45:20.309Z,82.30
2017-09-29T17:47:49.393Z,83.70
2017-09-29T17:50:17.735Z,83.70
2017-09-29T17:52:46.801Z,82.00
2017-09-29T17:55:15.090Z,82.00
2017-09-29T17:57:43.419Z,81.30
2017-09-29T18:00:11.720Z,82.20
2017-09-29T18:02:40.052Z,83.00
2017-09-29T18:05:08.431Z,80.70
2017-09-29T18:07:36.739Z,81.30
2017-09-29T18:10:05.038Z,83.30
2017-09-29T18:12:33.380Z,81.60
2017-09-29T18:15:02.341Z,83.70
2017-09-29T18:17:30.637Z,82.60
2017-09-29T18:19:59.866Z,82.90
2017-09-29T18:22:29.126Z,82.40
2017-09-29T18:24:58.223Z,82.50
2017-09-29T18:27:26.526Z,82.40
2017-09-29T18:29:54.823Z,82.60
2017-09-29T18:32:23.164Z,83.90
2017-09-29T18:34:51.486Z,84.60
2017-09-29T18:37:19.781Z,85.60
2017-09-29T18:39:50.010Z,86.10
2017-09-29T18:42:18.326Z,87.10
2017-09-29T18:44:47.437Z,87.50
2017-09-29T18:47:17.721Z,88.00
2017-09-29T18:49:46.806Z,89.30
2017-09-29T18:52:15.105Z,89.30
2017-09-29T18:54:43.440Z,89.60
2017-09-29T18:57:11.765Z,90.30
2017-09-29T18:59:40.069Z,90.30
2017-09-29T19:02:08.432Z,90.80
2017-09-29T19:04:36.732Z,90.90
2017-09-29T19:07:05.032Z,91.10
2017-09-29T19:09:34.146Z,91.40
2017-09-29T19:12:02.454Z,91.40
2017-09-29T19:14:30.769Z,91.50
2017-09-29T19:16:59.113Z,92.20
2017-09-29T19:19:27.458Z,92.20
2017-09-29T19:21:55.866Z,92.90
2017-09-29T19:24:24.197Z,93.20
2017-09-29T19:26:52.492Z,93.50
2017-09-29T19:29:20.921Z,93.70
2017-09-29T19:31:49.259Z,93.90
2017-09-29T19:34:17.566Z,94.60
2017-09-29T19:36:45.937Z,94.70
2017-09-29T19:39:14.293Z,95.10
2017-09-29T19:41:42.791Z,95.10
2017-09-29T19:44:11.128Z,95.30
2017-09-29T19:46:39.469Z,95.10
2017-09-29T19:49:07.794Z,95.30
2017-09-29T19:51:36.855Z,95.30
2017-09-29T19:54:05.196Z,95.30
2017-09-29T19:56:33.526Z,95.50
2017-09-29T19:59:01.833Z,95.50
2017-09-29T20:01:30.181Z,95.80
2017-09-29T20:03:59.267Z,96.00
2017-09-29T20:06:28.076Z,95.90
2017-09-29T20:08:56.430Z,95.90
2017-09-29T20:11:24.731Z,95.50
2017-09-29T20:13:53.043Z,95.60
2017-09-29T20:16:21.392Z,95.50
2017-09-29T20:18:49.689Z,95.40
2017-09-29T20:21:17.994Z,95.50
2017-09-29T20:23:46.343Z,95.60
2017-09-29T20:26:15.061Z,96.00
2017-09-29T20:28:43.381Z,95.70
2017-09-29T20:31:12.536Z,95.60
2017-09-29T20:33:40.845Z,95.50
2017-09-29T20:36:09.140Z,95.60
2017-09-29T20:38:37.495Z,95.50
2017-09-29T20:41:05.789Z,95.10
2017-09-29T20:43:34.135Z,95.60
2017-09-29T20:46:02.472Z,95.60
2017-09-29T20:48:30.962Z,96.00
2017-09-29T20:50:59.267Z,96.00
2017-09-29T20:53:28.366Z,95.90
2017-09-29T20:55:56.677Z,95.90
2017-09-29T20:58:25.761Z,96.60
2017-09-29T21:00:54.121Z,96.50
2017-09-29T21:03:22.453Z,96.60
2017-09-29T21:05:51.526Z,96.80
2017-09-29T21:08:20.623Z,97.70
2017-09-29T21:10:48.977Z,97.70
2017-09-29T21:13:17.273Z,97.40
2017-09-29T21:15:46.252Z,97.70
2017-09-29T21:18:14.562Z,97.70
2017-09-29T21:20:42.866Z,99.10
2017-09-29T21:23:11.969Z,99.90
2017-09-29T21:25:40.267Z,99.10
2017-09-29T21:28:08.564Z,99.10
2017-09-29T21:30:37.678Z,99.60
2017-09-29T21:33:05.986Z,99.50
2017-09-29T21:35:35.044Z,99.30
2017-09-29T21:38:03.377Z,99.20
2017-09-29T21:40:31.849Z,99.30
2017-09-29T21:43:00.145Z,98.90
2017-09-29T21:45:28.484Z,98.80
2017-09-29T21:47:57.549Z,99.00
2017-09-29T21:50:25.882Z,99.00
2017-09-29T21:52:54.217Z,99.70
2017-09-29T21:55:22.521Z,99.90
2017-09-29T21:57:50.818Z,99.90
2017-09-29T22:00:19.158Z,99.90
2017-09-29T22:02:47.453Z,99.90
2017-09-29T22:05:15.756Z,99.90
2017-09-29T22:07:44.106Z,99.90
2017-09-29T22:10:12.422Z,99.90
2017-09-29T22:12:40.732Z,99.90
2017-09-29T22:15:09.071Z,99.90
2017-09-29T22:17:37.374Z,99.90
2017-09-29T22:20:06.441Z,99.90
2017-09-29T22:22:35.558Z,99.90
2017-09-29T22:25:03.863Z,99.90
2017-09-29T22:27:32.942Z,99.90
2017-09-29T22:30:02.058Z,99.80
2017-09-29T22:32:30.573Z,99.80
2017-09-29T22:34:59.636Z,99.90
2017-09-29T22:37:28.733Z,99.90
2017-09-29T22:39:57.027Z,99.90
2017-09-29T22:42:25.322Z,99.90
2017-09-29T22:44:54.483Z,99.90
2017-09-29T22:47:23.554Z,99.90
2017-09-29T22:49:52.675Z,99.90
2017-09-29T22:52:20.984Z,99.90
2017-09-29T22:54:49.285Z,99.90
2017-09-29T22:57:17.632Z,99.90
2017-09-29T22:59:46.709Z,99.90
2017-09-29T23:02:15.019Z,99.90
2017-09-29T23:04:43.355Z,99.90
2017-09-29T23:07:11.821Z,99.90
2017-09-29T23:09:40.749Z,99.90
2017-09-29T23:12:09.180Z,99.90
2017-09-29T23:14:38.727Z,99.90
2017-09-29T23:17:07.821Z,99.90
2017-09-29T23:19:36.890Z,99.70
2017-09-29T23:22:06.043Z,99.60
2017-09-29T23:24:35.148Z,99.70
2017-09-29T23:27:03.452Z,99.70
2017-09-29T23:29:31.769Z,99.70
2017-09-29T23:32:00.192Z,99.90
2017-09-29T23:34:28.501Z,99.90
2017-09-29T23:36:56.797Z,99.90
2017-09-29T23:39:25.210Z,99.90
2017-09-29T23:41:53.508Z,99.90
2017-09-29T23:44:21.819Z,99.90
2017-09-29T23:46:50.160Z,99.90
2017-09-29T23:49:18.465Z,99.90
2017-09-29T23:51:46.774Z,99.90
2017-09-29T23:54:15.162Z,99.90
2017-09-29T23:56:43.466Z,99.90
2017-09-29T23:59:12.493Z,99.90
